sensor_id;sensor_type;location;lat;lon;timestamp;P1;P2;P0
72793;PMS5003;61018;26.334;50.194;2022-07-12T00:01:29;29;26;
72793;PMS5003;61018;26.334;50.194;2022-07-12T00:03:55;27;24;
72793;PMS5003;61018;26.334;50.194;2022-07-12T00:06:21;29;24;
72793;PMS5003;61018;26.334;50.194;2022-07-12T00:08:45;30;24;
72793;PMS5003;61018;26.334;50.194;2022-07-12T00:11:11;24;21;
72793;PMS5003;61018;26.334;50.194;2022-07-12T00:13:36;24;21;
72793;PMS5003;61018;26.334;50.194;2022-07-12T00:16:07;29;22;
72793;PMS5003;61018;26.334;50.194;2022-07-12T00:18:27;38;30;
72793;PMS5003;61018;26.334;50.194;2022-07-12T00:20:56;34;24;
72793;PMS5003;61018;26.334;50.194;2022-07-12T00:23:20;35;28;
72793;PMS5003;61018;26.334;50.194;2022-07-12T00:25:43;29;26;
72793;PMS5003;61018;26.334;50.194;2022-07-12T00:28:12;30;23;
72793;PMS5003;61018;26.334;50.194;2022-07-12T00:30:35;28;23;
72793;PMS5003;61018;26.334;50.194;2022-07-12T00:33:00;30;22;
72793;PMS5003;61018;26.334;50.194;2022-07-12T00:35:25;22;21;
72793;PMS5003;61018;26.334;50.194;2022-07-12T00:37:51;32;24;
72793;PMS5003;61018;26.334;50.194;2022-07-12T00:40:16;26;19;
72793;PMS5003;61018;26.334;50.194;2022-07-12T00:42:42;31;24;
72793;PMS5003;61018;26.334;50.194;2022-07-12T00:45:07;30;23;
72793;PMS5003;61018;26.334;50.194;2022-07-12T00:47:33;26;18;
72793;PMS5003;61018;26.334;50.194;2022-07-12T00:49:58;28;22;
72793;PMS5003;61018;26.334;50.194;2022-07-12T00:52:23;27;24;
72793;PMS5003;61018;26.334;50.194;2022-07-12T00:54:49;26;25;
72793;PMS5003;61018;26.334;50.194;2022-07-12T00:57:14;30;25;
72793;PMS5003;61018;26.334;50.194;2022-07-12T00:59:39;32;23;
72793;PMS5003;61018;26.334;50.194;2022-07-12T01:02:04;33;26;
72793;PMS5003;61018;26.334;50.194;2022-07-12T01:04:30;25;21;
72793;PMS5003;61018;26.334;50.194;2022-07-12T01:06:55;33;27;
72793;PMS5003;61018;26.334;50.194;2022-07-12T01:09:22;25;20;
72793;PMS5003;61018;26.334;50.194;2022-07-12T01:11:46;35;30;
72793;PMS5003;61018;26.334;50.194;2022-07-12T01:14:11;29;28;
72793;PMS5003;61018;26.334;50.194;2022-07-12T01:16:37;30;26;
72793;PMS5003;61018;26.334;50.194;2022-07-12T01:19:03;27;24;
72793;PMS5003;61018;26.334;50.194;2022-07-12T01:21:28;33;23;
72793;PMS5003;61018;26.334;50.194;2022-07-12T01:23:53;35;25;
72793;PMS5003;61018;26.334;50.194;2022-07-12T01:26:23;27;24;
72793;PMS5003;61018;26.334;50.194;2022-07-12T01:28:44;34;27;
72793;PMS5003;61018;26.334;50.194;2022-07-12T01:31:09;42;29;
72793;PMS5003;61018;26.334;50.194;2022-07-12T01:33:34;32;28;
72793;PMS5003;61018;26.334;50.194;2022-07-12T01:36:00;29;25;
72793;PMS5003;61018;26.334;50.194;2022-07-12T01:38:25;31;26;
72793;PMS5003;61018;26.334;50.194;2022-07-12T01:40:51;24;24;
72793;PMS5003;61018;26.334;50.194;2022-07-12T01:43:16;36;32;
72793;PMS5003;61018;26.334;50.194;2022-07-12T01:45:41;30;29;
72793;PMS5003;61018;26.334;50.194;2022-07-12T01:48:07;32;30;
72793;PMS5003;61018;26.334;50.194;2022-07-12T01:50:37;35;31;
72793;PMS5003;61018;26.334;50.194;2022-07-12T01:52:57;43;38;
72793;PMS5003;61018;26.334;50.194;2022-07-12T01:55:22;36;33;
72793;PMS5003;61018;26.334;50.194;2022-07-12T01:57:47;41;35;
72793;PMS5003;61018;26.334;50.194;2022-07-12T02:00:13;45;39;
72793;PMS5003;61018;26.334;50.194;2022-07-12T02:02:43;45;37;
72793;PMS5003;61018;26.334;50.194;2022-07-12T02:05:03;43;34;
72793;PMS5003;61018;26.334;50.194;2022-07-12T02:07:28;39;35;
72793;PMS5003;61018;26.334;50.194;2022-07-12T02:09:53;47;41;
72793;PMS5003;61018;26.334;50.194;2022-07-12T02:12:18;42;33;
72793;PMS5003;61018;26.334;50.194;2022-07-12T02:14:43;46;40;
72793;PMS5003;61018;26.334;50.194;2022-07-12T02:17:09;41;33;
72793;PMS5003;61018;26.334;50.194;2022-07-12T02:19:34;46;34;
72793;PMS5003;61018;26.334;50.194;2022-07-12T02:21:59;37;31;
72793;PMS5003;61018;26.334;50.194;2022-07-12T02:24:25;44;37;
72793;PMS5003;61018;26.334;50.194;2022-07-12T02:26:52;35;33;
72793;PMS5003;61018;26.334;50.194;2022-07-12T02:29:20;38;32;
72793;PMS5003;61018;26.334;50.194;2022-07-12T02:31:46;39;33;
72793;PMS5003;61018;26.334;50.194;2022-07-12T02:34:07;37;33;
72793;PMS5003;61018;26.334;50.194;2022-07-12T02:36:32;36;31;
72793;PMS5003;61018;26.334;50.194;2022-07-12T02:38:59;41;35;
72793;PMS5003;61018;26.334;50.194;2022-07-12T02:41:23;39;35;
72793;PMS5003;61018;26.334;50.194;2022-07-12T02:43:48;36;32;
72793;PMS5003;61018;26.334;50.194;2022-07-12T02:46:13;40;31;
72793;PMS5003;61018;26.334;50.194;2022-07-12T02:48:38;40;28;
72793;PMS5003;61018;26.334;50.194;2022-07-12T02:51:04;38;33;
72793;PMS5003;61018;26.334;50.194;2022-07-12T02:53:29;38;29;
72793;PMS5003;61018;26.334;50.194;2022-07-12T02:55:54;31;26;
72793;PMS5003;61018;26.334;50.194;2022-07-12T02:58:19;34;28;
72793;PMS5003;61018;26.334;50.194;2022-07-12T03:00:45;33;23;
72793;PMS5003;61018;26.334;50.194;2022-07-12T03:03:10;34;31;
72793;PMS5003;61018;26.334;50.194;2022-07-12T03:05:35;30;24;
72793;PMS5003;61018;26.334;50.194;2022-07-12T03:08:01;35;25;
72793;PMS5003;61018;26.334;50.194;2022-07-12T03:10:25;32;26;
72793;PMS5003;61018;26.334;50.194;2022-07-12T03:12:51;29;25;
72793;PMS5003;61018;26.334;50.194;2022-07-12T03:15:17;30;23;
72793;PMS5003;61018;26.334;50.194;2022-07-12T03:17:41;28;24;
72793;PMS5003;61018;26.334;50.194;2022-07-12T03:20:07;34;30;
72793;PMS5003;61018;26.334;50.194;2022-07-12T03:22:32;28;24;
72793;PMS5003;61018;26.334;50.194;2022-07-12T03:24:58;32;25;
72793;PMS5003;61018;26.334;50.194;2022-07-12T03:27:23;43;32;
72793;PMS5003;61018;26.334;50.194;2022-07-12T03:29:48;30;25;
72793;PMS5003;61018;26.334;50.194;2022-07-12T03:32:14;31;25;
72793;PMS5003;61018;26.334;50.194;2022-07-12T03:34:40;33;31;
72793;PMS5003;61018;26.334;50.194;2022-07-12T03:37:06;36;27;
72793;PMS5003;61018;26.334;50.194;2022-07-12T03:39:30;33;26;
72793;PMS5003;61018;26.334;50.194;2022-07-12T03:41:55;30;27;
72793;PMS5003;61018;26.334;50.194;2022-07-12T03:44:21;35;31;
72793;PMS5003;61018;26.334;50.194;2022-07-12T03:46:46;38;30;
72793;PMS5003;61018;26.334;50.194;2022-07-12T03:49:11;30;25;
72793;PMS5003;61018;26.334;50.194;2022-07-12T03:51:38;29;26;
72793;PMS5003;61018;26.334;50.194;2022-07-12T03:54:03;33;28;
72793;PMS5003;61018;26.334;50.194;2022-07-12T03:56:27;24;21;
72793;PMS5003;61018;26.334;50.194;2022-07-12T03:58:53;30;27;
72793;PMS5003;61018;26.334;50.194;2022-07-12T04:01:19;38;27;
72793;PMS5003;61018;26.334;50.194;2022-07-12T04:03:45;30;24;
72793;PMS5003;61018;26.334;50.194;2022-07-12T04:06:11;29;27;
72793;PMS5003;61018;26.334;50.194;2022-07-12T04:08:36;38;30;
72793;PMS5003;61018;26.334;50.194;2022-07-12T04:11:02;30;25;
72793;PMS5003;61018;26.334;50.194;2022-07-12T04:13:27;39;29;
72793;PMS5003;61018;26.334;50.194;2022-07-12T04:15:52;32;27;
72793;PMS5003;61018;26.334;50.194;2022-07-12T04:20:44;32;28;
72793;PMS5003;61018;26.334;50.194;2022-07-12T04:23:09;34;29;
72793;PMS5003;61018;26.334;50.194;2022-07-12T04:25:35;34;28;
72793;PMS5003;61018;26.334;50.194;2022-07-12T04:28:01;34;28;
72793;PMS5003;61018;26.334;50.194;2022-07-12T04:30:26;43;29;
72793;PMS5003;61018;26.334;50.194;2022-07-12T04:37:43;50;35;
72793;PMS5003;61018;26.334;50.194;2022-07-12T04:40:08;36;30;
72793;PMS5003;61018;26.334;50.194;2022-07-12T04:42:34;44;34;
72793;PMS5003;61018;26.334;50.194;2022-07-12T04:44:59;55;39;
72793;PMS5003;61018;26.334;50.194;2022-07-12T04:47:24;50;35;
72793;PMS5003;61018;26.334;50.194;2022-07-12T04:49:50;76;51;
72793;PMS5003;61018;26.334;50.194;2022-07-12T04:52:16;62;47;
72793;PMS5003;61018;26.334;50.194;2022-07-12T04:54:41;97;51;
72793;PMS5003;61018;26.334;50.194;2022-07-12T04:57:06;76;48;
72793;PMS5003;61018;26.334;50.194;2022-07-12T05:01:57;65;46;
72793;PMS5003;61018;26.334;50.194;2022-07-12T05:04:22;80;51;
72793;PMS5003;61018;26.334;50.194;2022-07-12T05:06:48;78;46;
72793;PMS5003;61018;26.334;50.194;2022-07-12T05:09:13;80;51;
72793;PMS5003;61018;26.334;50.194;2022-07-12T05:11:39;54;40;
72793;PMS5003;61018;26.334;50.194;2022-07-12T05:14:04;52;40;
72793;PMS5003;61018;26.334;50.194;2022-07-12T05:16:31;44;27;
72793;PMS5003;61018;26.334;50.194;2022-07-12T05:18:56;38;32;
72793;PMS5003;61018;26.334;50.194;2022-07-12T05:21:21;37;32;
72793;PMS5003;61018;26.334;50.194;2022-07-12T05:23:46;37;30;
72793;PMS5003;61018;26.334;50.194;2022-07-12T05:26:12;40;33;
72793;PMS5003;61018;26.334;50.194;2022-07-12T05:28:37;38;34;
72793;PMS5003;61018;26.334;50.194;2022-07-12T05:31:03;36;31;
72793;PMS5003;61018;26.334;50.194;2022-07-12T05:33:28;38;31;
72793;PMS5003;61018;26.334;50.194;2022-07-12T05:35:54;43;34;
72793;PMS5003;61018;26.334;50.194;2022-07-12T05:38:20;36;32;
72793;PMS5003;61018;26.334;50.194;2022-07-12T05:40:45;40;32;
72793;PMS5003;61018;26.334;50.194;2022-07-12T05:43:11;37;33;
72793;PMS5003;61018;26.334;50.194;2022-07-12T05:45:37;27;27;
72793;PMS5003;61018;26.334;50.194;2022-07-12T05:48:02;31;24;
72793;PMS5003;61018;26.334;50.194;2022-07-12T05:50:27;34;30;
72793;PMS5003;61018;26.334;50.194;2022-07-12T05:52:52;31;29;
72793;PMS5003;61018;26.334;50.194;2022-07-12T05:55:18;32;29;
72793;PMS5003;61018;26.334;50.194;2022-07-12T05:57:43;38;30;
72793;PMS5003;61018;26.334;50.194;2022-07-12T06:00:08;34;28;
72793;PMS5003;61018;26.334;50.194;2022-07-12T06:02:34;27;26;
72793;PMS5003;61018;26.334;50.194;2022-07-12T06:05:00;27;25;
72793;PMS5003;61018;26.334;50.194;2022-07-12T06:07:25;32;28;
72793;PMS5003;61018;26.334;50.194;2022-07-12T06:09:51;33;24;
72793;PMS5003;61018;26.334;50.194;2022-07-12T06:12:16;33;28;
72793;PMS5003;61018;26.334;50.194;2022-07-12T06:14:41;36;29;
72793;PMS5003;61018;26.334;50.194;2022-07-12T06:17:07;30;27;
72793;PMS5003;61018;26.334;50.194;2022-07-12T06:19:32;41;27;
72793;PMS5003;61018;26.334;50.194;2022-07-12T06:21:57;30;28;
72793;PMS5003;61018;26.334;50.194;2022-07-12T06:24:22;32;28;
72793;PMS5003;61018;26.334;50.194;2022-07-12T06:26:48;31;27;
72793;PMS5003;61018;26.334;50.194;2022-07-12T06:29:14;27;26;
72793;PMS5003;61018;26.334;50.194;2022-07-12T06:31:39;46;31;
72793;PMS5003;61018;26.334;50.194;2022-07-12T06:34:04;44;31;
72793;PMS5003;61018;26.334;50.194;2022-07-12T06:36:29;34;29;
72793;PMS5003;61018;26.334;50.194;2022-07-12T06:38:55;33;31;
72793;PMS5003;61018;26.334;50.194;2022-07-12T06:41:20;40;28;
72793;PMS5003;61018;26.334;50.194;2022-07-12T06:43:45;36;27;
72793;PMS5003;61018;26.334;50.194;2022-07-12T06:46:10;34;28;
72793;PMS5003;61018;26.334;50.194;2022-07-12T06:48:36;35;28;
72793;PMS5003;61018;26.334;50.194;2022-07-12T06:51:01;37;29;
72793;PMS5003;61018;26.334;50.194;2022-07-12T06:53:27;38;31;
72793;PMS5003;61018;26.334;50.194;2022-07-12T06:55:52;32;25;
72793;PMS5003;61018;26.334;50.194;2022-07-12T06:58:18;35;27;
72793;PMS5003;61018;26.334;50.194;2022-07-12T07:00:43;31;25;
72793;PMS5003;61018;26.334;50.194;2022-07-12T07:03:08;42;28;
72793;PMS5003;61018;26.334;50.194;2022-07-12T07:05:34;35;26;
72793;PMS5003;61018;26.334;50.194;2022-07-12T07:08:00;33;25;
72793;PMS5003;61018;26.334;50.194;2022-07-12T07:10:24;35;26;
72793;PMS5003;61018;26.334;50.194;2022-07-12T07:12:50;32;28;
72793;PMS5003;61018;26.334;50.194;2022-07-12T07:15:16;30;27;
72793;PMS5003;61018;26.334;50.194;2022-07-12T07:17:40;32;27;
72793;PMS5003;61018;26.334;50.194;2022-07-12T07:20:06;29;27;
72793;PMS5003;61018;26.334;50.194;2022-07-12T07:22:31;31;23;
72793;PMS5003;61018;26.334;50.194;2022-07-12T07:24:57;30;23;
72793;PMS5003;61018;26.334;50.194;2022-07-12T07:27:23;31;26;
72793;PMS5003;61018;26.334;50.194;2022-07-12T07:29:48;28;22;
72793;PMS5003;61018;26.334;50.194;2022-07-12T07:32:13;26;23;
72793;PMS5003;61018;26.334;50.194;2022-07-12T07:34:39;31;27;
72793;PMS5003;61018;26.334;50.194;2022-07-12T07:37:04;32;26;
72793;PMS5003;61018;26.334;50.194;2022-07-12T07:39:30;26;20;
72793;PMS5003;61018;26.334;50.194;2022-07-12T07:41:56;37;28;
72793;PMS5003;61018;26.334;50.194;2022-07-12T07:44:22;38;27;
72793;PMS5003;61018;26.334;50.194;2022-07-12T07:46:47;33;26;
72793;PMS5003;61018;26.334;50.194;2022-07-12T07:49:13;37;27;
72793;PMS5003;61018;26.334;50.194;2022-07-12T07:51:38;31;24;
72793;PMS5003;61018;26.334;50.194;2022-07-12T07:54:03;33;27;
72793;PMS5003;61018;26.334;50.194;2022-07-12T07:56:29;30;26;
72793;PMS5003;61018;26.334;50.194;2022-07-12T07:58:56;39;27;
72793;PMS5003;61018;26.334;50.194;2022-07-12T08:01:20;26;26;
72793;PMS5003;61018;26.334;50.194;2022-07-12T08:03:47;36;26;
72793;PMS5003;61018;26.334;50.194;2022-07-12T08:06:11;30;22;
72793;PMS5003;61018;26.334;50.194;2022-07-12T08:08:36;34;25;
72793;PMS5003;61018;26.334;50.194;2022-07-12T08:11:02;35;30;
72793;PMS5003;61018;26.334;50.194;2022-07-12T08:13:27;36;25;
72793;PMS5003;61018;26.334;50.194;2022-07-12T08:15:54;30;25;
72793;PMS5003;61018;26.334;50.194;2022-07-12T08:18:20;37;32;
72793;PMS5003;61018;26.334;50.194;2022-07-12T08:20:45;35;25;
72793;PMS5003;61018;26.334;50.194;2022-07-12T08:23:10;29;24;
72793;PMS5003;61018;26.334;50.194;2022-07-12T08:25:36;28;25;
72793;PMS5003;61018;26.334;50.194;2022-07-12T08:28:01;30;27;
72793;PMS5003;61018;26.334;50.194;2022-07-12T08:30:27;28;26;
72793;PMS5003;61018;26.334;50.194;2022-07-12T08:32:54;32;25;
72793;PMS5003;61018;26.334;50.194;2022-07-12T08:35:18;31;25;
72793;PMS5003;61018;26.334;50.194;2022-07-12T08:37:43;34;27;
72793;PMS5003;61018;26.334;50.194;2022-07-12T08:40:09;30;27;
72793;PMS5003;61018;26.334;50.194;2022-07-12T08:42:34;33;29;
72793;PMS5003;61018;26.334;50.194;2022-07-12T08:45:00;38;32;
72793;PMS5003;61018;26.334;50.194;2022-07-12T08:47:25;35;25;
72793;PMS5003;61018;26.334;50.194;2022-07-12T08:52:24;33;28;
72793;PMS5003;61018;26.334;50.194;2022-07-12T08:54:41;30;26;
72793;PMS5003;61018;26.334;50.194;2022-07-12T08:57:06;30;26;
72793;PMS5003;61018;26.334;50.194;2022-07-12T08:59:32;29;29;
72793;PMS5003;61018;26.334;50.194;2022-07-12T09:01:59;36;28;
72793;PMS5003;61018;26.334;50.194;2022-07-12T09:04:23;31;27;
72793;PMS5003;61018;26.334;50.194;2022-07-12T09:06:49;33;27;
72793;PMS5003;61018;26.334;50.194;2022-07-12T09:11:39;35;27;
72793;PMS5003;61018;26.334;50.194;2022-07-12T09:14:05;32;29;
72793;PMS5003;61018;26.334;50.194;2022-07-12T09:16:30;46;34;
72793;PMS5003;61018;26.334;50.194;2022-07-12T09:21:22;38;36;
72793;PMS5003;61018;26.334;50.194;2022-07-12T09:26:16;40;34;
72793;PMS5003;61018;26.334;50.194;2022-07-12T09:28:37;43;35;
72793;PMS5003;61018;26.334;50.194;2022-07-12T09:31:03;43;36;
72793;PMS5003;61018;26.334;50.194;2022-07-12T09:33:27;39;32;
72793;PMS5003;61018;26.334;50.194;2022-07-12T09:35:58;44;37;
72793;PMS5003;61018;26.334;50.194;2022-07-12T09:38:19;47;37;
72793;PMS5003;61018;26.334;50.194;2022-07-12T09:40:44;43;33;
72793;PMS5003;61018;26.334;50.194;2022-07-12T09:43:10;38;33;
72793;PMS5003;61018;26.334;50.194;2022-07-12T09:45:35;42;33;
72793;PMS5003;61018;26.334;50.194;2022-07-12T09:48:00;50;41;
72793;PMS5003;61018;26.334;50.194;2022-07-12T09:50:26;53;43;
72793;PMS5003;61018;26.334;50.194;2022-07-12T09:52:51;64;51;
72793;PMS5003;61018;26.334;50.194;2022-07-12T09:55:17;55;44;
72793;PMS5003;61018;26.334;50.194;2022-07-12T09:57:47;59;46;
72793;PMS5003;61018;26.334;50.194;2022-07-12T10:00:13;53;40;
72793;PMS5003;61018;26.334;50.194;2022-07-12T10:02:33;56;48;
72793;PMS5003;61018;26.334;50.194;2022-07-12T10:07:24;55;48;
72793;PMS5003;61018;26.334;50.194;2022-07-12T10:09:51;45;38;
72793;PMS5003;61018;26.334;50.194;2022-07-12T10:12:16;53;38;
72793;PMS5003;61018;26.334;50.194;2022-07-12T10:14:40;56;44;
72793;PMS5003;61018;26.334;50.194;2022-07-12T10:17:06;60;45;
72793;PMS5003;61018;26.334;50.194;2022-07-12T10:19:32;58;48;
72793;PMS5003;61018;26.334;50.194;2022-07-12T10:21:58;64;49;
72793;PMS5003;61018;26.334;50.194;2022-07-12T10:26:48;60;49;
72793;PMS5003;61018;26.334;50.194;2022-07-12T10:29:17;66;47;
72793;PMS5003;61018;26.334;50.194;2022-07-12T10:31:39;66;52;
72793;PMS5003;61018;26.334;50.194;2022-07-12T10:34:08;71;55;
72793;PMS5003;61018;26.334;50.194;2022-07-12T10:36:29;81;59;
72793;PMS5003;61018;26.334;50.194;2022-07-12T10:43:47;83;58;
72793;PMS5003;61018;26.334;50.194;2022-07-12T10:46:16;92;56;
72793;PMS5003;61018;26.334;50.194;2022-07-12T10:51:11;77;56;
72793;PMS5003;61018;26.334;50.194;2022-07-12T10:54:40;83;60;
72793;PMS5003;61018;26.334;50.194;2022-07-12T10:56:10;79;56;
72793;PMS5003;61018;26.334;50.194;2022-07-12T10:58:35;78;60;
72793;PMS5003;61018;26.334;50.194;2022-07-12T11:01:01;91;65;
72793;PMS5003;61018;26.334;50.194;2022-07-12T11:05:51;86;65;
72793;PMS5003;61018;26.334;50.194;2022-07-12T11:13:19;81;66;
72793;PMS5003;61018;26.334;50.194;2022-07-12T11:15:33;108;71;
72793;PMS5003;61018;26.334;50.194;2022-07-12T11:17:59;88;63;
72793;PMS5003;61018;26.334;50.194;2022-07-12T11:20:29;88;64;
72793;PMS5003;61018;26.334;50.194;2022-07-12T11:22:51;110;75;
72793;PMS5003;61018;26.334;50.194;2022-07-12T11:25:16;102;77;
72793;PMS5003;61018;26.334;50.194;2022-07-12T11:27:42;113;79;
72793;PMS5003;61018;26.334;50.194;2022-07-12T11:30:07;96;72;
72793;PMS5003;61018;26.334;50.194;2022-07-12T11:32:34;102;78;
72793;PMS5003;61018;26.334;50.194;2022-07-12T11:34:58;89;69;
72793;PMS5003;61018;26.334;50.194;2022-07-12T11:37:23;97;70;
72793;PMS5003;61018;26.334;50.194;2022-07-12T11:39:48;100;68;
72793;PMS5003;61018;26.334;50.194;2022-07-12T11:42:15;80;56;
72793;PMS5003;61018;26.334;50.194;2022-07-12T11:44:43;113;80;
72793;PMS5003;61018;26.334;50.194;2022-07-12T11:47:05;103;69;
72793;PMS5003;61018;26.334;50.194;2022-07-12T11:49:30;90;65;
72793;PMS5003;61018;26.334;50.194;2022-07-12T11:51:55;104;72;
72793;PMS5003;61018;26.334;50.194;2022-07-12T11:56:46;101;67;
72793;PMS5003;61018;26.334;50.194;2022-07-12T11:59:12;95;67;
72793;PMS5003;61018;26.334;50.194;2022-07-12T12:01:37;89;66;
72793;PMS5003;61018;26.334;50.194;2022-07-12T12:08:54;94;64;
72793;PMS5003;61018;26.334;50.194;2022-07-12T12:13:44;93;59;
72793;PMS5003;61018;26.334;50.194;2022-07-12T12:16:11;81;56;
72793;PMS5003;61018;26.334;50.194;2022-07-12T12:18:37;91;63;
72793;PMS5003;61018;26.334;50.194;2022-07-12T12:21:02;82;59;
72793;PMS5003;61018;26.334;50.194;2022-07-12T12:23:27;84;60;
72793;PMS5003;61018;26.334;50.194;2022-07-12T12:25:52;98;63;
72793;PMS5003;61018;26.334;50.194;2022-07-12T12:28:18;104;66;
72793;PMS5003;61018;26.334;50.194;2022-07-12T12:30:50;117;66;
72793;PMS5003;61018;26.334;50.194;2022-07-12T12:33:09;104;72;
72793;PMS5003;61018;26.334;50.194;2022-07-12T12:35:35;102;71;
72793;PMS5003;61018;26.334;50.194;2022-07-12T12:38:01;118;78;
72793;PMS5003;61018;26.334;50.194;2022-07-12T12:40:26;105;67;
72793;PMS5003;61018;26.334;50.194;2022-07-12T12:42:51;108;70;
72793;PMS5003;61018;26.334;50.194;2022-07-12T12:45:18;112;65;
72793;PMS5003;61018;26.334;50.194;2022-07-12T12:47:52;116;74;
72793;PMS5003;61018;26.334;50.194;2022-07-12T12:50:08;100;74;
72793;PMS5003;61018;26.334;50.194;2022-07-12T12:52:46;110;72;
72793;PMS5003;61018;26.334;50.194;2022-07-12T12:54:59;100;78;
72793;PMS5003;61018;26.334;50.194;2022-07-12T12:57:25;103;74;
72793;PMS5003;61018;26.334;50.194;2022-07-12T12:59:50;107;77;
72793;PMS5003;61018;26.334;50.194;2022-07-12T13:02:16;132;86;
72793;PMS5003;61018;26.334;50.194;2022-07-12T13:04:42;110;70;
72793;PMS5003;61018;26.334;50.194;2022-07-12T13:07:07;106;71;
72793;PMS5003;61018;26.334;50.194;2022-07-12T13:09:33;101;74;
72793;PMS5003;61018;26.334;50.194;2022-07-12T13:11:57;93;67;
72793;PMS5003;61018;26.334;50.194;2022-07-12T13:14:23;104;75;
72793;PMS5003;61018;26.334;50.194;2022-07-12T13:16:49;103;70;
72793;PMS5003;61018;26.334;50.194;2022-07-12T13:19:14;99;73;
72793;PMS5003;61018;26.334;50.194;2022-07-12T13:21:39;99;68;
72793;PMS5003;61018;26.334;50.194;2022-07-12T13:24:04;102;77;
72793;PMS5003;61018;26.334;50.194;2022-07-12T13:26:30;104;74;
72793;PMS5003;61018;26.334;50.194;2022-07-12T13:28:55;106;78;
72793;PMS5003;61018;26.334;50.194;2022-07-12T13:31:21;94;75;
72793;PMS5003;61018;26.334;50.194;2022-07-12T13:33:46;105;73;
72793;PMS5003;61018;26.334;50.194;2022-07-12T13:38:37;90;65;
72793;PMS5003;61018;26.334;50.194;2022-07-12T13:41:02;77;55;
72793;PMS5003;61018;26.334;50.194;2022-07-12T13:43:28;88;58;
72793;PMS5003;61018;26.334;50.194;2022-07-12T13:45:54;80;59;
72793;PMS5003;61018;26.334;50.194;2022-07-12T13:48:18;91;60;
72793;PMS5003;61018;26.334;50.194;2022-07-12T13:50:44;70;57;
72793;PMS5003;61018;26.334;50.194;2022-07-12T13:53:10;70;55;
72793;PMS5003;61018;26.334;50.194;2022-07-12T13:55:36;71;51;
72793;PMS5003;61018;26.334;50.194;2022-07-12T13:58:01;69;50;
72793;PMS5003;61018;26.334;50.194;2022-07-12T14:00:27;70;45;
72793;PMS5003;61018;26.334;50.194;2022-07-12T14:02:52;65;50;
72793;PMS5003;61018;26.334;50.194;2022-07-12T14:05:17;63;46;
72793;PMS5003;61018;26.334;50.194;2022-07-12T14:07:43;61;43;
72793;PMS5003;61018;26.334;50.194;2022-07-12T14:10:09;49;38;
72793;PMS5003;61018;26.334;50.194;2022-07-12T14:12:34;53;41;
72793;PMS5003;61018;26.334;50.194;2022-07-12T14:14:59;38;34;
72793;PMS5003;61018;26.334;50.194;2022-07-12T14:17:24;40;38;
72793;PMS5003;61018;26.334;50.194;2022-07-12T14:22:15;44;38;
72793;PMS5003;61018;26.334;50.194;2022-07-12T14:24:41;56;42;
72793;PMS5003;61018;26.334;50.194;2022-07-12T14:27:06;48;38;
72793;PMS5003;61018;26.334;50.194;2022-07-12T14:29:32;53;43;
72793;PMS5003;61018;26.334;50.194;2022-07-12T14:31:56;56;40;
72793;PMS5003;61018;26.334;50.194;2022-07-12T14:34:22;72;52;
72793;PMS5003;61018;26.334;50.194;2022-07-12T14:36:48;66;52;
72793;PMS5003;61018;26.334;50.194;2022-07-12T14:39:12;81;62;
72793;PMS5003;61018;26.334;50.194;2022-07-12T14:41:39;84;62;
72793;PMS5003;61018;26.334;50.194;2022-07-12T14:44:05;90;63;
72793;PMS5003;61018;26.334;50.194;2022-07-12T14:46:30;100;65;
72793;PMS5003;61018;26.334;50.194;2022-07-12T14:48:55;116;75;
72793;PMS5003;61018;26.334;50.194;2022-07-12T14:51:21;119;80;
72793;PMS5003;61018;26.334;50.194;2022-07-12T14:53:45;109;65;
72793;PMS5003;61018;26.334;50.194;2022-07-12T14:56:16;98;73;
72793;PMS5003;61018;26.334;50.194;2022-07-12T14:58:37;120;67;
72793;PMS5003;61018;26.334;50.194;2022-07-12T15:01:03;113;71;
72793;PMS5003;61018;26.334;50.194;2022-07-12T15:03:27;106;72;
72793;PMS5003;61018;26.334;50.194;2022-07-12T15:05:53;102;71;
72793;PMS5003;61018;26.334;50.194;2022-07-12T15:08:17;108;72;
72793;PMS5003;61018;26.334;50.194;2022-07-12T15:10:44;96;64;
72793;PMS5003;61018;26.334;50.194;2022-07-12T15:13:10;126;84;
72793;PMS5003;61018;26.334;50.194;2022-07-12T15:15:35;110;67;
72793;PMS5003;61018;26.334;50.194;2022-07-12T15:18:00;104;65;
72793;PMS5003;61018;26.334;50.194;2022-07-12T15:20:26;99;63;
72793;PMS5003;61018;26.334;50.194;2022-07-12T15:22:52;102;65;
72793;PMS5003;61018;26.334;50.194;2022-07-12T15:25:17;117;77;
72793;PMS5003;61018;26.334;50.194;2022-07-12T15:27:42;117;79;
72793;PMS5003;61018;26.334;50.194;2022-07-12T15:30:07;126;65;
72793;PMS5003;61018;26.334;50.194;2022-07-12T15:32:33;104;69;
72793;PMS5003;61018;26.334;50.194;2022-07-12T15:34:59;117;83;
72793;PMS5003;61018;26.334;50.194;2022-07-12T15:37:23;105;70;
72793;PMS5003;61018;26.334;50.194;2022-07-12T15:39:49;114;71;
72793;PMS5003;61018;26.334;50.194;2022-07-12T15:42:14;125;74;
72793;PMS5003;61018;26.334;50.194;2022-07-12T15:44:39;106;74;
72793;PMS5003;61018;26.334;50.194;2022-07-12T15:47:05;108;67;
72793;PMS5003;61018;26.334;50.194;2022-07-12T15:49:31;116;73;
72793;PMS5003;61018;26.334;50.194;2022-07-12T15:51:56;110;71;
72793;PMS5003;61018;26.334;50.194;2022-07-12T15:54:22;120;78;
72793;PMS5003;61018;26.334;50.194;2022-07-12T15:56:47;109;71;
72793;PMS5003;61018;26.334;50.194;2022-07-12T15:59:12;112;76;
72793;PMS5003;61018;26.334;50.194;2022-07-12T16:01:38;117;77;
72793;PMS5003;61018;26.334;50.194;2022-07-12T16:06:34;109;69;
72793;PMS5003;61018;26.334;50.194;2022-07-12T16:08:54;121;70;
72793;PMS5003;61018;26.334;50.194;2022-07-12T16:11:20;140;83;
72793;PMS5003;61018;26.334;50.194;2022-07-12T16:13:45;135;82;
72793;PMS5003;61018;26.334;50.194;2022-07-12T16:16:10;123;86;
72793;PMS5003;61018;26.334;50.194;2022-07-12T16:18:36;137;93;
72793;PMS5003;61018;26.334;50.194;2022-07-12T16:21:02;142;85;
72793;PMS5003;61018;26.334;50.194;2022-07-12T16:23:27;124;81;
72793;PMS5003;61018;26.334;50.194;2022-07-12T16:25:53;139;90;
72793;PMS5003;61018;26.334;50.194;2022-07-12T16:28:18;135;91;
72793;PMS5003;61018;26.334;50.194;2022-07-12T16:30:43;133;84;
72793;PMS5003;61018;26.334;50.194;2022-07-12T16:33:08;124;82;
72793;PMS5003;61018;26.334;50.194;2022-07-12T16:35:40;129;83;
72793;PMS5003;61018;26.334;50.194;2022-07-12T16:38:00;130;85;
72793;PMS5003;61018;26.334;50.194;2022-07-12T16:40:25;128;79;
72793;PMS5003;61018;26.334;50.194;2022-07-12T16:42:50;117;76;